createdAt,value
2022-08-01T07:17:00.733Z,1015.51
2022-08-01T07:17:32.660Z,1015.61
2022-08-01T07:18:04.656Z,1015.61
2022-08-01T07:18:36.660Z,1015.51
2022-08-01T07:19:08.689Z,1015.51
2022-08-01T07:19:40.698Z,1015.51
2022-08-01T07:20:14.014Z,1015.51
2022-08-01T07:20:51.202Z,1015.61
2022-08-01T07:21:39.985Z,1015.61
2022-08-01T07:21:50.141Z,1015.81
2022-08-01T07:22:23.364Z,1015.81
2022-08-01T07:22:52.744Z,1015.81
2022-08-01T07:23:24.669Z,1015.92
2022-08-01T07:23:56.775Z,1015.92
2022-08-01T07:24:28.768Z,1015.98
2022-08-01T07:25:00.754Z,1015.98
2022-08-01T07:25:32.736Z,1015.81
2022-08-01T07:26:04.724Z,1015.81
2022-08-01T07:26:36.742Z,1015.51
2022-08-01T07:27:11.583Z,1015.51
2022-08-01T07:27:40.698Z,1015.71
2022-08-01T07:28:12.708Z,1015.71
2022-08-01T07:28:44.736Z,1015.61
2022-08-01T07:29:16.736Z,1015.61
2022-08-01T07:29:48.715Z,1015.71
2022-08-01T07:30:20.867Z,1015.71
2022-08-01T07:30:52.738Z,1015.61
2022-08-01T07:31:27.379Z,1015.41
2022-08-01T07:31:56.733Z,1015.41
2022-08-01T07:32:28.705Z,1015.71
2022-08-01T07:33:00.697Z,1015.71
2022-08-01T07:33:49.003Z,1015.61
2022-08-01T07:34:04.714Z,1015.61
2022-08-01T07:34:36.757Z,1015.51
2022-08-01T07:35:08.753Z,1015.51
2022-08-01T07:35:40.663Z,1015.51
2022-08-01T07:36:12.759Z,1015.51
2022-08-01T07:36:44.713Z,1015.71
2022-08-01T07:37:16.741Z,1015.71
2022-08-01T07:37:49.452Z,1015.71
2022-08-01T07:38:20.751Z,1015.71
2022-08-01T07:38:52.837Z,1015.61
2022-08-01T07:39:24.680Z,1015.51
2022-08-01T07:39:56.721Z,1015.51
2022-08-01T07:40:28.710Z,1015.71
2022-08-01T07:41:00.705Z,1015.71
2022-08-01T07:41:45.491Z,1015.92
2022-08-01T07:42:35.787Z,1015.51
2022-08-01T07:43:07.830Z,1015.51
2022-08-01T07:43:39.720Z,1015.81
2022-08-01T07:44:11.710Z,1015.81
2022-08-01T07:44:43.715Z,1015.61
2022-08-01T07:45:15.941Z,1015.61
2022-08-01T07:45:47.745Z,1015.61
2022-08-01T07:46:19.812Z,1015.61
2022-08-01T07:46:51.763Z,1015.71
2022-08-01T07:47:23.813Z,1015.81
2022-08-01T07:47:55.716Z,1015.81
2022-08-01T07:48:27.784Z,1015.81
2022-08-01T07:48:59.748Z,1015.81
2022-08-01T07:49:34.989Z,1015.71
2022-08-01T07:50:03.723Z,1015.71
2022-08-01T07:50:35.757Z,1015.71
2022-08-01T07:51:07.852Z,1015.71
2022-08-01T07:51:39.719Z,1015.81
2022-08-01T07:52:11.737Z,1015.81
2022-08-01T07:52:43.697Z,1015.71
2022-08-01T07:53:15.789Z,1015.71
2022-08-01T07:53:47.676Z,1015.71
2022-08-01T07:54:19.729Z,1015.71
2022-08-01T07:54:52.306Z,1015.71
2022-08-01T07:55:23.786Z,1015.51
2022-08-01T07:55:55.726Z,1015.51
2022-08-01T07:56:27.740Z,1015.61
2022-08-01T07:56:59.798Z,1015.61
2022-08-01T07:57:31.767Z,1015.81
2022-08-01T07:58:03.714Z,1015.81
2022-08-01T07:58:35.662Z,1015.81
2022-08-01T07:59:07.745Z,1015.81
2022-08-01T07:59:39.703Z,1015.92
2022-08-01T08:00:11.944Z,1015.92
2022-08-01T08:00:43.726Z,1015.81
2022-08-01T08:01:15.779Z,1015.81
2022-08-01T08:01:47.889Z,1015.92
2022-08-01T08:02:19.870Z,1015.92
2022-08-01T08:02:51.798Z,1015.92
2022-08-01T08:03:23.873Z,1015.92
2022-08-01T08:03:55.745Z,1015.92
2022-08-01T08:04:27.736Z,1015.81
2022-08-01T08:04:59.732Z,1015.81
2022-08-01T08:05:51.337Z,1015.81
2022-08-01T08:06:03.693Z,1015.81
2022-08-01T08:06:35.797Z,1015.81
2022-08-01T08:07:08.187Z,1015.81
2022-08-01T08:07:39.743Z,1015.81
2022-08-01T08:08:11.812Z,1015.81
2022-08-01T08:08:43.738Z,1015.98
2022-08-01T08:09:15.694Z,1015.98
2022-08-01T08:09:51.145Z,1015.92
2022-08-01T08:10:19.746Z,1015.92
2022-08-01T08:10:51.785Z,1015.98
2022-08-01T08:11:23.883Z,1015.81
2022-08-01T08:11:55.807Z,1015.81
2022-08-01T08:12:28.990Z,1015.81
2022-08-01T08:12:59.836Z,1015.81
2022-08-01T08:13:31.802Z,1015.98
2022-08-01T08:14:03.817Z,1015.98
2022-08-01T08:14:35.750Z,1015.81
2022-08-01T08:15:08.029Z,1015.81
2022-08-01T08:15:39.711Z,1015.92
2022-08-01T08:16:11.711Z,1015.92
2022-08-01T08:16:43.756Z,1015.81
2022-08-01T08:17:15.793Z,1015.81
2022-08-01T08:17:55.067Z,1016.08
2022-08-01T08:18:19.794Z,1016.08
2022-08-01T08:18:51.726Z,1015.81
2022-08-01T08:19:37.464Z,1015.81
2022-08-01T08:19:55.755Z,1015.81
2022-08-01T08:20:27.788Z,1015.71
2022-08-01T08:21:02.403Z,1015.71
2022-08-01T08:21:31.746Z,1015.98
2022-08-01T08:22:04.144Z,1015.98
2022-08-01T08:22:35.707Z,1015.98
2022-08-01T08:23:07.761Z,1015.98
2022-08-01T08:23:42.565Z,1015.98
2022-08-01T08:24:11.794Z,1015.98
2022-08-01T08:24:45.655Z,1016.19
2022-08-01T08:25:15.764Z,1016.19
2022-08-01T08:25:47.798Z,1015.98
2022-08-01T08:26:19.771Z,1015.98
2022-08-01T08:26:52.281Z,1015.98
2022-08-01T08:27:23.897Z,1016.29
2022-08-01T08:27:55.783Z,1016.29
2022-08-01T08:28:28.285Z,1016.08
2022-08-01T08:28:59.827Z,1016.08
2022-08-01T08:29:31.763Z,1016.39
2022-08-01T08:30:03.941Z,1016.39
2022-08-01T08:30:35.763Z,1015.98
2022-08-01T08:31:07.886Z,1015.98
2022-08-01T08:32:11.113Z,1016.08
2022-08-01T08:32:42.821Z,1016.29
2022-08-01T08:33:14.863Z,1016.29
2022-08-01T08:33:46.779Z,1016.08
2022-08-01T08:34:18.790Z,1016.08
2022-08-01T08:34:50.802Z,1016.08
2022-08-01T08:35:23.300Z,1016.08
2022-08-01T08:35:54.731Z,1015.92
2022-08-01T08:36:31.213Z,1016.08
2022-08-01T08:36:59.154Z,1016.08
2022-08-01T08:37:31.514Z,1016.29
2022-08-01T08:38:02.823Z,1016.29
2022-08-01T08:38:34.789Z,1016.29
2022-08-01T08:39:06.847Z,1016.29
2022-08-01T08:39:42.172Z,1016.39
2022-08-01T08:40:10.810Z,1016.39
2022-08-01T08:40:42.805Z,1016.19
2022-08-01T08:41:19.219Z,1016.19
2022-08-01T08:41:49.438Z,1016.39
2022-08-01T08:42:18.743Z,1016.39
2022-08-01T08:42:50.394Z,1016.19
2022-08-01T08:43:22.400Z,1016.19
2022-08-01T08:43:54.388Z,1016.08
2022-08-01T08:44:26.399Z,1016.19
2022-08-01T08:44:58.396Z,1016.19
2022-08-01T08:45:30.903Z,1016.19
2022-08-01T08:46:02.385Z,1016.19
2022-08-01T08:46:34.470Z,1016.08
2022-08-01T08:47:06.384Z,1016.08
2022-08-01T08:47:38.390Z,1016.19
2022-08-01T08:48:10.392Z,1016.19
2022-08-01T08:48:42.410Z,1015.98
2022-08-01T08:49:14.431Z,1015.98
2022-08-01T08:49:46.415Z,1016.08
2022-08-01T08:50:18.382Z,1016.08
2022-08-01T08:50:50.387Z,1016.08
2022-08-01T08:51:22.472Z,1016.08
2022-08-01T08:51:54.424Z,1016.29
2022-08-01T08:52:26.385Z,1015.92
2022-08-01T08:52:58.402Z,1015.92
2022-08-01T08:53:34.588Z,1015.92
2022-08-01T08:54:02.399Z,1015.92
2022-08-01T08:54:34.604Z,1016.19
2022-08-01T08:55:06.408Z,1016.19
2022-08-01T08:55:55.471Z,1016.08
2022-08-01T08:56:10.468Z,1016.08
2022-08-01T08:56:42.443Z,1016.29
2022-08-01T08:57:14.419Z,1016.29
2022-08-01T08:57:46.409Z,1016.19
2022-08-01T08:58:18.407Z,1016.19
2022-08-01T08:58:50.424Z,1016.08
2022-08-01T08:59:22.412Z,1016.08
2022-08-01T08:59:54.409Z,1015.92
2022-08-01T09:00:26.570Z,1016.19
2022-08-01T09:00:58.469Z,1016.19
2022-08-01T09:01:30.452Z,1015.98
2022-08-01T09:02:02.409Z,1015.98
2022-08-01T09:02:34.412Z,1016.19
2022-08-01T09:03:06.460Z,1016.19
2022-08-01T09:03:38.482Z,1016.08
2022-08-01T09:04:10.408Z,1016.08
2022-08-01T09:04:42.409Z,1015.98
2022-08-01T09:05:19.304Z,1015.98
2022-08-01T09:05:46.566Z,1016.29
2022-08-01T09:06:18.461Z,1016.29
2022-08-01T09:06:50.424Z,1016.39
2022-08-01T09:07:22.460Z,1016.39
2022-08-01T09:07:54.424Z,1016.29
2022-08-01T09:08:26.421Z,1016.29
2022-08-01T09:08:58.422Z,1016.29
2022-08-01T09:09:30.423Z,1016.19
2022-08-01T09:10:02.423Z,1016.19
2022-08-01T09:10:34.477Z,1016.08
2022-08-01T09:11:06.451Z,1016.08
2022-08-01T09:11:38.422Z,1016.19
2022-08-01T09:12:10.586Z,1016.19
2022-08-01T09:12:42.418Z,1016.08
2022-08-01T09:13:14.420Z,1016.08
2022-08-01T09:13:46.422Z,1016.08
2022-08-01T09:14:18.424Z,1016.08
2022-08-01T09:14:50.422Z,1016.08
2022-08-01T09:15:22.693Z,1016.08
2022-08-01T09:15:54.461Z,1015.98
2022-08-01T09:16:26.432Z,1016.08
2022-08-01T09:16:58.437Z,1016.08
2022-08-01T09:17:30.430Z,1015.92
2022-08-01T09:18:02.435Z,1015.92
2022-08-01T09:18:34.435Z,1016.08
2022-08-01T09:19:06.427Z,1016.08
2022-08-01T09:19:40.686Z,1015.98
2022-08-01T09:20:10.490Z,1015.98
2022-08-01T09:20:42.460Z,1016.08
2022-08-01T09:21:14.442Z,1016.08
2022-08-01T09:21:46.424Z,1015.98
2022-08-01T09:22:18.899Z,1015.98
2022-08-01T09:22:50.431Z,1015.98
2022-08-01T09:23:22.436Z,1015.98
2022-08-01T09:23:55.015Z,1015.92
2022-08-01T09:24:30.840Z,1016.29
2022-08-01T09:24:58.489Z,1016.29
2022-08-01T09:25:30.468Z,1016.08
2022-08-01T09:26:02.450Z,1016.08
2022-08-01T09:26:34.439Z,1015.98
2022-08-01T09:27:06.432Z,1015.98
2022-08-01T09:27:38.450Z,1016.08
2022-08-01T09:28:10.434Z,1016.08
2022-08-01T09:28:47.544Z,1016.19
2022-08-01T09:29:14.430Z,1016.19
2022-08-01T09:29:49.830Z,1015.98
2022-08-01T09:30:19.546Z,1015.98
2022-08-01T09:30:50.444Z,1016.19
2022-08-01T09:31:22.444Z,1016.19
2022-08-01T09:31:54.454Z,1016.08
2022-08-01T09:32:26.512Z,1015.98
2022-08-01T09:32:58.465Z,1015.98
2022-08-01T09:33:34.862Z,1016.19
2022-08-01T09:34:02.451Z,1016.19
2022-08-01T09:34:34.635Z,1016.19
2022-08-01T09:35:06.479Z,1016.19
2022-08-01T09:35:43.736Z,1016.08
2022-08-01T09:36:13.124Z,1016.08
2022-08-01T09:36:42.467Z,1016.29
2022-08-01T09:37:14.458Z,1016.29
2022-08-01T09:37:47.345Z,1016.19
2022-08-01T09:38:18.454Z,1016.19
2022-08-01T09:38:51.113Z,1016.19
2022-08-01T09:39:22.515Z,1016.19
2022-08-01T09:39:53.461Z,1016.39
2022-08-01T09:40:25.520Z,1016.29
2022-08-01T09:40:58.209Z,1016.29
2022-08-01T09:41:40.148Z,1016.39
2022-08-01T09:42:01.504Z,1016.39
2022-08-01T09:42:33.487Z,1016.39
2022-08-01T09:43:05.465Z,1016.39
2022-08-01T09:43:37.614Z,1016.39
2022-08-01T09:44:09.467Z,1016.39
2022-08-01T09:44:41.510Z,1016.08
2022-08-01T09:45:19.017Z,1016.08
2022-08-01T09:45:45.810Z,1016.29
2022-08-01T09:46:17.475Z,1016.29
2022-08-01T09:46:49.488Z,1016.39
2022-08-01T09:47:21.478Z,1016.39
2022-08-01T09:47:53.478Z,1016.49
2022-08-01T09:48:28.807Z,1016.29
2022-08-01T09:48:57.553Z,1016.29
2022-08-01T09:49:29.534Z,1016.29
2022-08-01T09:50:01.622Z,1016.29
2022-08-01T09:50:33.588Z,1016.49
2022-08-01T09:51:09.786Z,1016.49
2022-08-01T09:51:58.825Z,1016.19
2022-08-01T09:52:09.483Z,1016.19
2022-08-01T09:52:41.516Z,1016.19
2022-08-01T09:53:30.182Z,1016.19
2022-08-01T09:53:51.334Z,1016.39
2022-08-01T09:54:17.489Z,1016.39
2022-08-01T09:54:49.489Z,1016.29
2022-08-01T09:55:21.581Z,1016.29
2022-08-01T09:55:53.501Z,1016.19
2022-08-01T09:56:25.497Z,1016.08
2022-08-01T09:56:57.511Z,1016.08
2022-08-01T09:57:29.495Z,1016.08
2022-08-01T09:58:01.510Z,1016.08
2022-08-01T09:58:33.493Z,1015.98
2022-08-01T09:59:05.493Z,1015.98
2022-08-01T09:59:57.278Z,1016.19
2022-08-01T10:00:10.012Z,1016.19
2022-08-01T10:00:45.541Z,1016.19
2022-08-01T10:01:13.497Z,1016.19
2022-08-01T10:01:45.503Z,1016.08
2022-08-01T10:02:17.502Z,1016.08
2022-08-01T10:02:49.493Z,1016.19
2022-08-01T10:03:21.558Z,1016.19
2022-08-01T10:03:53.638Z,1015.98
2022-08-01T10:04:25.503Z,1015.98
2022-08-01T10:05:03.374Z,1015.98
2022-08-01T10:05:30.120Z,1016.19
2022-08-01T10:06:01.507Z,1016.19
2022-08-01T10:06:33.500Z,1016.29
2022-08-01T10:07:05.834Z,1016.29
2022-08-01T10:07:43.185Z,1016.49
2022-08-01T10:08:09.500Z,1016.49
2022-08-01T10:08:41.980Z,1016.19
2022-08-01T10:09:13.519Z,1016.19
2022-08-01T10:09:45.722Z,1016.19
2022-08-01T10:10:17.649Z,1016.19
2022-08-01T10:10:49.496Z,1016.59
2022-08-01T10:11:21.513Z,1016.59
2022-08-01T10:11:53.500Z,1016.29
2022-08-01T10:12:25.518Z,1016.29
2022-08-01T10:12:57.521Z,1016.29
2022-08-01T10:13:36.715Z,1016.19
2022-08-01T10:14:01.535Z,1016.19
2022-08-01T10:14:33.513Z,1016.39
2022-08-01T10:15:05.756Z,1016.39
2022-08-01T10:15:37.975Z,1016.39
2022-08-01T10:16:09.512Z,1016.39
2022-08-01T10:16:41.517Z,1016.49
2022-08-01T10:17:19.621Z,1016.49
2022-08-01T10:17:50.243Z,1016.69
2022-08-01T10:18:26.246Z,1016.69
2022-08-01T10:18:49.521Z,1016.29
2022-08-01T10:19:21.515Z,1016.29
2022-08-01T10:19:53.597Z,1016.39
2022-08-01T10:20:30.211Z,1015.92
2022-08-01T10:20:58.092Z,1015.92
2022-08-01T10:21:56.770Z,1016.29
2022-08-01T10:22:01.572Z,1016.29
2022-08-01T10:22:35.632Z,1016.19
2022-08-01T10:23:05.765Z,1016.19
2022-08-01T10:23:40.487Z,1016.29
2022-08-01T10:24:09.536Z,1016.29
2022-08-01T10:24:41.609Z,1016.19
2022-08-01T10:25:13.523Z,1016.19
2022-08-01T10:25:46.864Z,1016.19
2022-08-01T10:26:17.533Z,1016.19
2022-08-01T10:26:49.522Z,1016.08
2022-08-01T10:27:38.524Z,1016.08
2022-08-01T10:27:53.523Z,1016.08
2022-08-01T10:28:25.521Z,1016.19
2022-08-01T10:28:57.529Z,1016.19
2022-08-01T10:30:00.158Z,1016.29
2022-08-01T10:30:32.772Z,1016.08
2022-08-01T10:31:05.406Z,1016.08
2022-08-01T10:31:36.526Z,1016.29
2022-08-01T10:32:08.532Z,1016.29
2022-08-01T10:32:40.540Z,1016.19
2022-08-01T10:33:19.888Z,1016.19
2022-08-01T10:34:15.527Z,1016.08
2022-08-01T10:34:47.537Z,1015.98
2022-08-01T10:35:24.015Z,1015.98
2022-08-01T10:35:51.529Z,1016.29
2022-08-01T10:36:23.675Z,1016.19
2022-08-01T10:36:56.030Z,1016.19
2022-08-01T10:37:27.535Z,1016.19
2022-08-01T10:37:59.546Z,1016.19
2022-08-01T10:38:31.555Z,1016.39
2022-08-01T10:39:03.530Z,1016.39
2022-08-01T10:39:35.527Z,1016.19
2022-08-01T10:40:29.323Z,1016.19
2022-08-01T10:40:39.826Z,1016.29
2022-08-01T10:41:11.612Z,1016.29
2022-08-01T10:41:43.538Z,1016.29
2022-08-01T10:42:16.086Z,1016.29
2022-08-01T10:42:47.529Z,1016.39
2022-08-01T10:43:21.645Z,1016.39
2022-08-01T10:43:51.531Z,1016.19
2022-08-01T10:44:23.638Z,1016.29
2022-08-01T10:44:55.539Z,1016.29
2022-08-01T10:45:27.759Z,1016.29
2022-08-01T10:45:59.611Z,1016.29
2022-08-01T10:46:31.538Z,1016.19
2022-08-01T10:47:03.895Z,1016.19
2022-08-01T10:47:50.779Z,1016.29
2022-08-01T10:48:07.544Z,1016.29
2022-08-01T10:48:39.542Z,1016.39
2022-08-01T10:49:11.627Z,1016.39
2022-08-01T10:49:43.713Z,1016.29
2022-08-01T10:50:15.547Z,1016.29
2022-08-01T10:50:48.627Z,1016.29
2022-08-01T10:51:19.540Z,1016.29
2022-08-01T10:51:54.905Z,1016.29
2022-08-01T10:52:23.655Z,1016.39
2022-08-01T10:52:55.550Z,1016.39
2022-08-01T10:53:31.504Z,1016.49
2022-08-01T10:54:00.731Z,1016.49
2022-08-01T10:54:31.565Z,1016.19
2022-08-01T10:55:03.553Z,1016.19
2022-08-01T10:55:35.630Z,1016.19
2022-08-01T10:56:07.547Z,1016.19
2022-08-01T10:56:39.545Z,1016.08
2022-08-01T10:57:11.553Z,1016.08
2022-08-01T10:57:43.566Z,1016.19
2022-08-01T10:58:15.898Z,1016.19
2022-08-01T10:58:47.555Z,1016.19
2022-08-01T10:59:50.134Z,1016.19
2022-08-01T11:00:22.712Z,1016.29
2022-08-01T11:00:54.603Z,1016.49
2022-08-01T11:01:26.736Z,1015.98
2022-08-01T11:01:58.681Z,1015.98
2022-08-01T11:02:31.986Z,1016.19
2022-08-01T11:03:02.562Z,1016.19
2022-08-01T11:03:55.586Z,1016.29
2022-08-01T11:04:06.564Z,1016.29
2022-08-01T11:04:38.560Z,1016.39
2022-08-01T11:05:10.555Z,1016.39
2022-08-01T11:05:42.557Z,1016.19
2022-08-01T11:06:14.626Z,1016.19
2022-08-01T11:06:46.556Z,1016.39
2022-08-01T11:07:18.570Z,1016.39
2022-08-01T11:07:50.556Z,1016.29
2022-08-01T11:08:22.558Z,1016.29
2022-08-01T11:08:54.559Z,1016.19
2022-08-01T11:09:36.515Z,1016.19
2022-08-01T11:09:58.563Z,1016.19
2022-08-01T11:10:30.598Z,1016.29
2022-08-01T11:11:02.634Z,1016.29
2022-08-01T11:11:37.636Z,1016.29
2022-08-01T11:12:06.657Z,1016.29
2022-08-01T11:12:38.571Z,1016.19
2022-08-01T11:13:10.572Z,1016.19
2022-08-01T11:13:42.560Z,1016.39
2022-08-01T11:14:14.584Z,1016.39
2022-08-01T11:14:55.751Z,1016.19
2022-08-01T11:15:29.996Z,1016.19
2022-08-01T11:15:51.062Z,1016.19
2022-08-01T11:16:24.276Z,1016.19
2022-08-01T11:16:54.563Z,1016.19
2022-08-01T11:17:26.563Z,1016.29
2022-08-01T11:17:58.579Z,1016.29
2022-08-01T11:18:30.926Z,1016.29
2022-08-01T11:19:02.563Z,1016.29
2022-08-01T11:19:34.563Z,1016.29
2022-08-01T11:20:06.566Z,1016.29
2022-08-01T11:20:41.811Z,1015.98
2022-08-01T11:21:57.731Z,1015.98
2022-08-01T11:22:13.575Z,1015.92
2022-08-01T11:22:45.587Z,1016.08
2022-08-01T11:23:17.573Z,1016.08
2022-08-01T11:23:49.564Z,1016.19
2022-08-01T11:24:21.569Z,1016.19
2022-08-01T11:24:53.579Z,1016.19
2022-08-01T11:26:03.850Z,1016.39
2022-08-01T11:26:29.995Z,1016.08
2022-08-01T11:27:00.621Z,1016.08
2022-08-01T11:27:33.658Z,1015.92
2022-08-01T11:28:04.587Z,1015.92
2022-08-01T11:28:37.043Z,1015.98
2022-08-01T11:29:19.959Z,1015.98
2022-08-01T11:29:40.575Z,1016.19
2022-08-01T11:30:13.058Z,1016.19
2022-08-01T11:30:44.580Z,1015.98
2022-08-01T11:31:16.575Z,1015.98
2022-08-01T11:31:48.620Z,1016.29
2022-08-01T11:32:20.646Z,1016.29
2022-08-01T11:33:10.486Z,1016.19
2022-08-01T11:33:24.589Z,1016.19
2022-08-01T11:33:59.308Z,1016.19
2022-08-01T11:34:28.596Z,1016.19
2022-08-01T11:35:00.649Z,1016.19
2022-08-01T11:35:32.582Z,1016.08
2022-08-01T11:36:04.591Z,1016.08
2022-08-01T11:36:57.563Z,1015.98
2022-08-01T11:37:08.640Z,1015.98
2022-08-01T11:37:40.585Z,1016.08
2022-08-01T11:38:12.601Z,1016.08
2022-08-01T11:38:44.626Z,1015.98
2022-08-01T11:39:16.584Z,1015.98
2022-08-01T11:39:48.586Z,1015.98
2022-08-01T11:40:20.594Z,1015.98
2022-08-01T11:40:52.593Z,1016.08
2022-08-01T11:41:38.263Z,1016.19
2022-08-01T11:41:56.648Z,1016.19
2022-08-01T11:42:28.593Z,1015.92
2022-08-01T11:43:00.585Z,1015.92
2022-08-01T11:43:32.592Z,1016.08
2022-08-01T11:44:04.586Z,1016.08
2022-08-01T11:44:36.589Z,1016.08
2022-08-01T11:45:08.742Z,1016.08
2022-08-01T11:45:40.590Z,1016.08
2022-08-01T11:46:12.676Z,1016.08
2022-08-01T11:46:44.643Z,1016.19
2022-08-01T11:47:16.598Z,1016.19
2022-08-01T11:47:49.963Z,1015.92
2022-08-01T11:48:20.615Z,1015.92
2022-08-01T11:48:52.642Z,1015.92
2022-08-01T11:49:24.684Z,1016.19
2022-08-01T11:49:56.616Z,1016.19
2022-08-01T11:50:28.598Z,1016.08
2022-08-01T11:51:02.178Z,1016.08
2022-08-01T11:51:33.203Z,1016.19
2022-08-01T11:52:04.602Z,1016.19
2022-08-01T11:52:36.612Z,1016.29
2022-08-01T11:53:08.606Z,1016.29
2022-08-01T11:53:40.982Z,1016.08
2022-08-01T11:54:12.603Z,1016.08
2022-08-01T11:54:44.609Z,1016.19
2022-08-01T11:55:16.869Z,1016.19
2022-08-01T11:55:51.425Z,1016.08
2022-08-01T11:56:20.651Z,1016.08
2022-08-01T11:56:52.603Z,1016.08
2022-08-01T11:57:24.604Z,1016.19
2022-08-01T11:57:56.613Z,1016.19
2022-08-01T11:58:31.313Z,1016.08
2022-08-01T11:59:00.618Z,1016.08
2022-08-01T11:59:38.296Z,1015.98
2022-08-01T12:00:08.353Z,1015.98
2022-08-01T12:00:36.666Z,1016.19
2022-08-01T12:01:08.659Z,1016.19
2022-08-01T12:01:40.615Z,1015.98
2022-08-01T12:02:12.672Z,1015.98
2022-08-01T12:02:45.235Z,1016.39
2022-08-01T12:03:18.059Z,1016.39
2022-08-01T12:03:48.621Z,1016.19
2022-08-01T12:04:20.614Z,1016.19
2022-08-01T12:04:52.614Z,1015.92
2022-08-01T12:05:25.147Z,1016.19
2022-08-01T12:05:56.662Z,1016.19
2022-08-01T12:06:28.619Z,1015.98
2022-08-01T12:07:00.617Z,1015.98
2022-08-01T12:07:32.645Z,1016.39
2022-08-01T12:08:04.614Z,1016.39
2022-08-01T12:08:36.619Z,1016.29
2022-08-01T12:09:11.986Z,1016.29
2022-08-01T12:09:40.618Z,1016.29
2022-08-01T12:10:12.675Z,1016.29
2022-08-01T12:10:49.383Z,1016.19
2022-08-01T12:11:16.629Z,1016.19
2022-08-01T12:11:48.641Z,1016.29
2022-08-01T12:12:20.637Z,1016.29
2022-08-01T12:12:52.639Z,1016.19
2022-08-01T12:13:24.645Z,1016.49
2022-08-01T12:13:56.627Z,1016.49
2022-08-01T12:14:28.634Z,1016.49
2022-08-01T12:15:00.913Z,1016.49
2022-08-01T12:15:32.684Z,1016.39
2022-08-01T12:16:04.646Z,1016.39
2022-08-01T12:16:36.645Z,1015.98
2022-08-01T12:17:09.029Z,1015.98
2022-08-01T12:17:40.647Z,1016.29
2022-08-01T12:18:12.642Z,1016.29
2022-08-01T12:18:44.668Z,1016.08
2022-08-01T12:19:16.657Z,1016.08
2022-08-01T12:19:48.705Z,1015.92
2022-08-01T12:20:20.683Z,1015.92
2022-08-01T12:20:57.015Z,1016.19
2022-08-01T12:21:24.655Z,1016.19
2022-08-01T12:21:56.649Z,1016.19
2022-08-01T12:22:28.644Z,1016.29
2022-08-01T12:23:00.645Z,1016.29
2022-08-01T12:23:32.652Z,1015.71
2022-08-01T12:24:04.663Z,1015.71
2022-08-01T12:24:36.704Z,1016.08
2022-08-01T12:25:08.695Z,1016.08
2022-08-01T12:25:40.645Z,1015.98
2022-08-01T12:26:28.433Z,1015.98
2022-08-01T12:26:44.646Z,1015.98
2022-08-01T12:27:16.656Z,1015.98
2022-08-01T12:27:51.180Z,1015.98
2022-08-01T12:28:20.732Z,1015.98
2022-08-01T12:28:52.706Z,1016.19
2022-08-01T12:29:24.716Z,1016.29
2022-08-01T12:29:56.697Z,1016.29
2022-08-01T12:30:28.812Z,1016.19
2022-08-01T12:31:00.642Z,1016.19
2022-08-01T12:31:32.628Z,1015.92
2022-08-01T12:32:04.633Z,1015.92
2022-08-01T12:32:36.632Z,1016.19
2022-08-01T12:33:08.658Z,1016.19
2022-08-01T12:33:40.669Z,1016.29
2022-08-01T12:34:12.734Z,1016.29
2022-08-01T12:34:44.700Z,1016.08
2022-08-01T12:35:18.396Z,1016.08
2022-08-01T12:35:48.670Z,1016.19
2022-08-01T12:36:20.655Z,1016.19
2022-08-01T12:36:52.663Z,1016.29
2022-08-01T12:37:24.663Z,1016.08
2022-08-01T12:37:56.668Z,1016.08
2022-08-01T12:38:28.665Z,1016.39
2022-08-01T12:39:00.733Z,1016.39
2022-08-01T12:39:32.701Z,1016.49
2022-08-01T12:40:04.667Z,1016.49
2022-08-01T12:40:36.688Z,1016.39
2022-08-01T12:41:08.672Z,1016.39
2022-08-01T12:41:40.679Z,1016.49
2022-08-01T12:42:12.677Z,1016.49
2022-08-01T12:42:44.696Z,1016.49
2022-08-01T12:43:27.223Z,1016.49
2022-08-01T12:43:48.748Z,1016.80
2022-08-01T12:44:20.716Z,1016.80
2022-08-01T12:44:52.687Z,1016.59
2022-08-01T12:45:24.848Z,1016.59
2022-08-01T12:45:57.611Z,1016.59
2022-08-01T12:46:28.684Z,1016.49
2022-08-01T12:47:00.694Z,1016.49
2022-08-01T12:47:32.688Z,1016.49
2022-08-01T12:48:04.695Z,1016.49
2022-08-01T12:48:36.751Z,1016.69
2022-08-01T12:49:08.754Z,1016.69
2022-08-01T12:49:40.689Z,1016.49
2022-08-01T12:50:12.684Z,1016.49
2022-08-01T12:50:44.680Z,1016.49
2022-08-01T12:51:16.683Z,1016.49
2022-08-01T12:51:56.976Z,1016.39
2022-08-01T12:52:20.683Z,1016.39
2022-08-01T12:52:52.681Z,1016.49
2022-08-01T12:53:24.746Z,1016.49
2022-08-01T12:53:56.705Z,1016.49
2022-08-01T12:54:28.698Z,1016.29
2022-08-01T12:55:00.695Z,1016.29
2022-08-01T12:55:34.205Z,1016.49
2022-08-01T12:56:05.174Z,1016.49
2022-08-01T12:56:36.694Z,1016.49
2022-08-01T12:57:09.046Z,1016.49
2022-08-01T12:57:40.695Z,1016.39
2022-08-01T12:58:16.142Z,1016.39
2022-08-01T12:58:44.727Z,1016.49
2022-08-01T12:59:16.689Z,1016.49
2022-08-01T12:59:48.693Z,1016.59
2022-08-01T13:00:20.855Z,1016.59
2022-08-01T13:00:52.787Z,1016.59
2022-08-01T13:01:24.769Z,1016.69
2022-08-01T13:01:59.325Z,1016.69
2022-08-01T13:02:28.706Z,1016.49
2022-08-01T13:03:00.759Z,1016.49
2022-08-01T13:03:32.742Z,1016.39
2022-08-01T13:04:04.710Z,1016.39
2022-08-01T13:04:36.706Z,1016.49
2022-08-01T13:05:08.705Z,1016.49
2022-08-01T13:05:40.707Z,1016.59
2022-08-01T13:06:12.703Z,1016.59
2022-08-01T13:06:44.711Z,1016.49
2022-08-01T13:07:16.705Z,1016.49
2022-08-01T13:07:48.766Z,1016.49
2022-08-01T13:08:20.739Z,1016.49
2022-08-01T13:08:52.711Z,1016.39
2022-08-01T13:09:24.709Z,1016.49
2022-08-01T13:09:56.705Z,1016.49
2022-08-01T13:10:28.707Z,1016.39
2022-08-01T13:11:00.705Z,1016.39
2022-08-01T13:11:32.707Z,1016.39
2022-08-01T13:12:04.929Z,1016.39
2022-08-01T13:12:36.760Z,1016.49
2022-08-01T13:13:08.730Z,1016.49
2022-08-01T13:13:40.754Z,1016.39
2022-08-01T13:14:12.710Z,1016.39
2022-08-01T13:14:44.715Z,1016.49
2022-08-01T13:15:16.876Z,1016.49
2022-08-01T13:15:48.715Z,1016.49
2022-08-01T13:16:34.358Z,1016.49
2022-08-01T13:16:57.233Z,1016.69
2022-08-01T13:17:24.791Z,1016.59
2022-08-01T13:17:56.756Z,1016.59
2022-08-01T13:18:28.805Z,1016.69
2022-08-01T13:19:00.734Z,1016.69
2022-08-01T13:19:32.737Z,1016.80
2022-08-01T13:20:04.733Z,1016.80
2022-08-01T13:20:36.737Z,1016.69
2022-08-01T13:21:08.740Z,1016.69
2022-08-01T13:21:54.394Z,1016.80
2022-08-01T13:22:12.820Z,1016.80
2022-08-01T13:22:44.759Z,1016.69
2022-08-01T13:23:19.964Z,1016.69
2022-08-01T13:24:20.652Z,1016.90
2022-08-01T13:24:52.757Z,1016.90
2022-08-01T13:25:27.352Z,1016.80
2022-08-01T13:25:56.759Z,1016.80
2022-08-01T13:26:28.775Z,1016.69
2022-08-01T13:27:01.499Z,1016.69
2022-08-01T13:27:32.764Z,1016.90
2022-08-01T13:28:04.792Z,1016.90
2022-08-01T13:28:36.773Z,1016.90
2022-08-01T13:29:08.782Z,1016.90
2022-08-01T13:29:40.768Z,1016.90
2022-08-01T13:30:12.933Z,1016.90
2022-08-01T13:30:47.321Z,1016.80
2022-08-01T13:31:16.783Z,1016.80
2022-08-01T13:31:49.000Z,1016.90
2022-08-01T13:32:28.972Z,1016.90
2022-08-01T13:32:52.788Z,1016.90
2022-08-01T13:33:24.805Z,1016.80
2022-08-01T13:34:00.241Z,1016.80
2022-08-01T13:34:28.789Z,1016.80
2022-08-01T13:35:00.789Z,1016.80
2022-08-01T13:35:32.789Z,1016.80
2022-08-01T13:36:04.800Z,1016.80
2022-08-01T13:36:36.899Z,1016.59
2022-08-01T13:37:08.801Z,1016.59
2022-08-01T13:37:40.795Z,1017.00
2022-08-01T13:38:12.817Z,1017.00
2022-08-01T13:38:44.814Z,1016.90
2022-08-01T13:39:16.813Z,1016.90
2022-08-01T13:39:48.812Z,1017.00
2022-08-01T13:40:20.814Z,1017.00
2022-08-01T13:40:52.816Z,1016.90
2022-08-01T13:41:24.914Z,1016.90
2022-08-01T13:41:56.881Z,1016.90
2022-08-01T13:42:28.841Z,1016.69
2022-08-01T13:43:00.832Z,1016.69
2022-08-01T13:43:58.901Z,1016.80
2022-08-01T13:44:04.831Z,1016.80
2022-08-01T13:44:36.835Z,1016.80
2022-08-01T13:45:14.708Z,1016.80
2022-08-01T13:45:40.848Z,1016.69
2022-08-01T13:46:12.882Z,1016.69
2022-08-01T13:46:49.227Z,1016.59
2022-08-01T13:47:17.033Z,1016.59
2022-08-01T13:48:11.947Z,1016.80